createdAt,value
2018-06-10T00:00:19.560Z,21.40
2018-06-10T00:03:23.162Z,21.40
2018-06-10T00:06:26.802Z,21.40
2018-06-10T00:09:30.408Z,21.40
2018-06-10T00:12:34.073Z,21.30
2018-06-10T00:15:37.750Z,21.10
2018-06-10T00:18:41.353Z,21.10
2018-06-10T00:24:48.328Z,21.00
2018-06-10T00:27:51.934Z,21.00
2018-06-10T00:30:55.696Z,21.00
2018-06-10T00:33:59.321Z,21.00
2018-06-10T00:37:02.953Z,21.00
2018-06-10T00:43:09.928Z,20.90
2018-06-10T00:46:13.534Z,20.90
2018-06-10T00:49:17.238Z,20.80
2018-06-10T00:52:20.824Z,20.70
2018-06-10T00:55:24.570Z,20.60
2018-06-10T00:58:28.145Z,20.60
2018-06-10T01:01:31.785Z,20.60
2018-06-10T01:04:35.397Z,20.60
2018-06-10T01:07:39.034Z,20.60
2018-06-10T01:10:42.642Z,20.70
2018-06-10T01:13:46.273Z,20.60
2018-06-10T01:19:53.442Z,20.60
2018-06-10T01:22:57.195Z,20.50
2018-06-10T01:26:00.777Z,20.50
2018-06-10T01:29:04.378Z,20.40
2018-06-10T01:32:07.998Z,20.40
2018-06-10T01:38:15.066Z,20.30
2018-06-10T01:41:18.746Z,20.20
2018-06-10T01:44:22.445Z,20.10
2018-06-10T01:47:26.058Z,20.10
2018-06-10T01:50:29.682Z,20.00
2018-06-10T01:53:33.326Z,20.00
2018-06-10T01:56:37.063Z,20.00
2018-06-10T01:59:40.755Z,20.00
2018-06-10T02:02:44.438Z,20.00
2018-06-10T02:05:48.073Z,19.90
2018-06-10T02:08:51.698Z,19.90
2018-06-10T02:11:55.377Z,19.90
2018-06-10T02:14:59.006Z,19.80
2018-06-10T02:18:02.610Z,19.80
2018-06-10T02:21:06.246Z,19.70
2018-06-10T02:24:10.450Z,19.70
2018-06-10T02:30:17.534Z,19.80
2018-06-10T02:33:21.162Z,19.80
2018-06-10T02:36:24.811Z,19.80
2018-06-10T02:39:28.446Z,19.80
2018-06-10T02:42:32.047Z,19.80
2018-06-10T02:45:35.669Z,19.70
2018-06-10T02:48:39.275Z,19.60
2018-06-10T02:51:42.908Z,19.60
2018-06-10T02:54:46.801Z,19.60
2018-06-10T02:57:50.430Z,19.70
2018-06-10T03:00:54.127Z,19.70
2018-06-10T03:03:57.833Z,19.60
2018-06-10T03:07:01.742Z,19.70
2018-06-10T03:10:05.446Z,19.70
2018-06-10T03:13:09.053Z,19.80
2018-06-10T03:16:12.678Z,19.90
2018-06-10T03:19:16.449Z,19.90
2018-06-10T03:22:20.082Z,20.00
2018-06-10T03:25:23.685Z,20.10
2018-06-10T03:28:27.357Z,20.10
2018-06-10T03:31:30.966Z,20.20
2018-06-10T03:34:34.594Z,20.30
2018-06-10T03:37:38.214Z,20.60
2018-06-10T03:43:45.301Z,21.20
2018-06-10T03:46:49.024Z,21.10
2018-06-10T03:49:52.605Z,21.00
2018-06-10T03:52:56.226Z,21.00
2018-06-10T03:59:03.282Z,21.10
2018-06-10T04:02:06.904Z,21.00
2018-06-10T04:05:10.530Z,21.00
2018-06-10T04:11:17.611Z,21.00
2018-06-10T04:17:24.621Z,21.40
2018-06-10T04:23:31.585Z,22.10
2018-06-10T04:26:35.202Z,22.50
2018-06-10T04:29:38.830Z,22.80
2018-06-10T04:35:45.894Z,22.70
2018-06-10T04:38:49.504Z,22.30
2018-06-10T04:41:53.138Z,22.10
2018-06-10T04:44:56.749Z,22.00
2018-06-10T04:48:00.495Z,22.00
2018-06-10T04:51:04.129Z,22.90
2018-06-10T04:54:08.105Z,23.70
2018-06-10T04:57:11.714Z,24.50
2018-06-10T05:00:16.227Z,24.80
2018-06-10T05:03:19.931Z,25.00
2018-06-10T05:06:23.631Z,25.60
2018-06-10T05:09:27.353Z,25.80
2018-06-10T05:12:31.145Z,25.80
2018-06-10T05:15:34.755Z,25.50
2018-06-10T05:18:38.380Z,25.80
2018-06-10T05:21:42.053Z,26.60
2018-06-10T05:24:45.677Z,26.60
2018-06-10T05:27:49.350Z,26.40
2018-06-10T05:30:52.980Z,26.00
2018-06-10T05:33:56.741Z,25.80
2018-06-10T05:37:00.395Z,25.90
2018-06-10T05:40:04.742Z,25.50
2018-06-10T05:43:08.385Z,25.50
2018-06-10T05:46:11.998Z,25.70
2018-06-10T05:49:15.629Z,25.30
2018-06-10T05:55:22.610Z,25.50
2018-06-10T05:58:26.344Z,25.70
2018-06-10T06:01:29.993Z,25.50
2018-06-10T06:04:33.690Z,25.40
2018-06-10T06:07:37.335Z,25.60
2018-06-10T06:10:41.450Z,25.70
2018-06-10T06:13:45.739Z,25.70
2018-06-10T06:16:49.346Z,25.50
2018-06-10T06:19:53.236Z,25.60
2018-06-10T06:22:56.881Z,26.10
2018-06-10T06:26:00.527Z,26.60
2018-06-10T06:29:05.186Z,27.60
2018-06-10T06:32:08.823Z,28.60
2018-06-10T06:35:12.450Z,29.50
2018-06-10T06:38:16.090Z,29.90
2018-06-10T06:41:19.702Z,29.80
2018-06-10T06:44:23.338Z,29.70
2018-06-10T06:47:26.985Z,30.40
2018-06-10T06:50:30.614Z,31.00
2018-06-10T06:53:34.235Z,31.10
2018-06-10T06:59:41.289Z,31.90
2018-06-10T07:02:44.917Z,32.10
2018-06-10T07:05:48.534Z,31.60
2018-06-10T07:11:55.554Z,30.80
2018-06-10T07:14:59.154Z,29.20
2018-06-10T07:18:02.770Z,29.30
2018-06-10T07:21:06.499Z,29.70
2018-06-10T07:24:10.101Z,30.10
2018-06-10T07:27:13.730Z,30.70
2018-06-10T07:30:17.330Z,31.10
2018-06-10T07:33:20.963Z,31.00
2018-06-10T07:36:24.660Z,31.20
2018-06-10T07:39:28.274Z,30.90
2018-06-10T07:42:31.899Z,30.40
2018-06-10T07:45:35.529Z,29.40
2018-06-10T07:48:39.199Z,28.80
2018-06-10T07:51:42.773Z,29.60
2018-06-10T07:54:46.387Z,29.00
2018-06-10T07:57:50.010Z,28.90
2018-06-10T08:00:53.631Z,29.00
2018-06-10T08:03:57.278Z,29.60
2018-06-10T08:10:04.273Z,31.20
2018-06-10T08:16:11.272Z,30.00
2018-06-10T08:22:18.382Z,30.20
2018-06-10T08:25:22.023Z,30.20
2018-06-10T08:28:25.730Z,29.80
2018-06-10T08:31:29.506Z,30.30
2018-06-10T08:34:33.238Z,31.00
2018-06-10T08:37:36.874Z,29.90
2018-06-10T08:40:40.519Z,30.10
2018-06-10T08:43:44.172Z,30.30
2018-06-10T08:46:47.754Z,30.40
2018-06-10T08:49:51.399Z,30.80
2018-06-10T08:52:55.263Z,30.80
2018-06-10T08:59:02.411Z,30.60
2018-06-10T09:02:05.997Z,31.00
2018-06-10T09:08:12.975Z,31.40
2018-06-10T09:11:16.659Z,31.40
2018-06-10T09:14:20.273Z,31.70
2018-06-10T09:17:23.902Z,31.70
2018-06-10T09:20:27.738Z,31.70
2018-06-10T09:23:31.376Z,31.50
2018-06-10T09:26:34.990Z,31.70
2018-06-10T09:29:38.623Z,31.70
2018-06-10T09:35:45.605Z,32.00
2018-06-10T09:38:49.231Z,31.60
2018-06-10T09:44:56.402Z,31.40
2018-06-10T09:48:00.087Z,31.70
2018-06-10T09:51:03.702Z,32.00
2018-06-10T09:54:07.338Z,31.70
2018-06-10T10:00:20.622Z,30.70
2018-06-10T10:03:24.229Z,30.60
2018-06-10T10:06:27.866Z,30.60
2018-06-10T10:09:31.474Z,30.70
2018-06-10T10:12:35.102Z,30.80
2018-06-10T10:15:38.717Z,30.80
2018-06-10T10:18:42.358Z,30.50
2018-06-10T10:21:45.958Z,30.40
2018-06-10T10:24:49.598Z,30.60
2018-06-10T10:27:53.274Z,31.10
2018-06-10T10:30:57.006Z,31.30
2018-06-10T10:34:00.607Z,31.50
2018-06-10T10:37:04.256Z,31.50
2018-06-10T10:40:07.913Z,31.60
2018-06-10T10:43:11.515Z,31.60
2018-06-10T10:49:19.549Z,31.20
2018-06-10T10:52:23.240Z,31.10
2018-06-10T10:55:26.888Z,31.10
2018-06-10T10:58:30.762Z,31.20
2018-06-10T11:01:34.409Z,31.50
2018-06-10T11:04:38.018Z,31.50
2018-06-10T11:07:41.654Z,31.30
2018-06-10T11:13:54.186Z,31.40
2018-06-10T11:16:57.765Z,31.90
2018-06-10T11:20:01.417Z,31.90
2018-06-10T11:23:05.063Z,32.30
2018-06-10T11:26:08.686Z,32.20
2018-06-10T11:29:12.309Z,32.30
2018-06-10T11:32:15.958Z,32.10
2018-06-10T11:35:19.561Z,32.10
2018-06-10T11:38:23.211Z,31.80
2018-06-10T11:44:30.161Z,31.30
2018-06-10T11:47:33.799Z,31.50
2018-06-10T11:50:37.445Z,31.80
2018-06-10T11:53:41.053Z,31.70
2018-06-10T11:56:45.017Z,31.20
2018-06-10T11:59:48.672Z,30.60
2018-06-10T12:02:52.425Z,30.60
2018-06-10T12:05:56.004Z,30.50
2018-06-10T12:08:59.626Z,30.30
2018-06-10T12:12:03.242Z,30.40
2018-06-10T12:15:06.899Z,30.30
2018-06-10T12:18:10.550Z,30.10
2018-06-10T12:21:14.170Z,29.60
2018-06-10T12:24:17.782Z,29.00
2018-06-10T12:27:21.405Z,28.50
2018-06-10T12:30:25.093Z,28.00
2018-06-10T12:33:28.724Z,27.40
2018-06-10T12:36:32.345Z,26.90
2018-06-10T12:42:39.330Z,26.00
2018-06-10T12:45:42.967Z,25.80
2018-06-10T12:48:46.658Z,25.80
2018-06-10T12:51:50.315Z,25.90
2018-06-10T12:54:53.938Z,26.20
2018-06-10T12:57:57.661Z,26.50
2018-06-10T13:01:01.246Z,27.00
2018-06-10T13:04:05.146Z,27.50
2018-06-10T13:07:08.761Z,28.00
2018-06-10T13:10:12.390Z,28.60
2018-06-10T13:13:16.006Z,29.10
2018-06-10T13:16:19.641Z,29.30
2018-06-10T13:19:23.280Z,29.40
2018-06-10T13:25:30.275Z,29.40
2018-06-10T13:28:33.878Z,29.50
2018-06-10T13:31:37.582Z,29.20
2018-06-10T13:34:41.199Z,29.10
2018-06-10T13:37:44.799Z,29.10
2018-06-10T13:40:48.831Z,28.70
2018-06-10T13:43:52.442Z,28.50
2018-06-10T13:46:56.762Z,28.40
2018-06-10T13:50:00.380Z,28.60
2018-06-10T13:53:04.070Z,28.70
2018-06-10T13:56:07.682Z,28.50
2018-06-10T13:59:11.313Z,28.40
2018-06-10T14:02:14.946Z,28.00
2018-06-10T14:06:22.017Z,27.80
2018-06-10T14:09:25.601Z,27.70
2018-06-10T14:12:29.269Z,27.70
2018-06-10T14:15:32.925Z,27.60
2018-06-10T14:18:36.553Z,27.50
2018-06-10T14:21:40.189Z,27.40
2018-06-10T14:24:43.837Z,27.30
2018-06-10T14:30:50.809Z,27.50
2018-06-10T14:33:54.644Z,27.60
2018-06-10T14:36:58.389Z,27.30
2018-06-10T14:40:02.012Z,27.20
2018-06-10T14:43:05.689Z,27.00
2018-06-10T14:46:09.401Z,27.00
2018-06-10T14:49:13.024Z,26.90
2018-06-10T14:52:16.653Z,26.70
2018-06-10T14:55:20.281Z,26.40
2018-06-10T14:58:23.906Z,26.10
2018-06-10T15:01:27.545Z,25.70
2018-06-10T15:04:31.154Z,25.50
2018-06-10T15:10:38.109Z,25.10
2018-06-10T15:13:41.759Z,24.80
2018-06-10T15:19:48.856Z,24.00
2018-06-10T15:25:56.501Z,22.60
2018-06-10T15:29:00.125Z,22.00
2018-06-10T15:32:03.881Z,21.80
2018-06-10T15:35:07.398Z,21.80
2018-06-10T15:38:11.034Z,21.80
2018-06-10T15:41:14.703Z,21.90
2018-06-10T15:47:22.258Z,21.80
2018-06-10T15:50:25.951Z,21.90
2018-06-10T15:53:29.654Z,22.10
2018-06-10T15:56:33.307Z,22.10
2018-06-10T16:05:43.805Z,22.60
2018-06-10T16:11:51.008Z,22.90
2018-06-10T16:14:54.717Z,23.00
2018-06-10T16:17:58.417Z,23.00
2018-06-10T16:21:02.070Z,23.20
2018-06-10T16:24:05.694Z,23.30
2018-06-10T16:27:09.373Z,23.50
2018-06-10T16:30:12.981Z,23.50
2018-06-10T16:33:16.734Z,23.50
2018-06-10T16:39:23.836Z,23.50
2018-06-10T16:42:27.742Z,23.40
2018-06-10T16:45:31.490Z,23.40
2018-06-10T16:48:35.146Z,23.40
2018-06-10T16:51:38.759Z,23.60
2018-06-10T16:54:42.454Z,23.50
2018-06-10T16:57:46.463Z,23.50
2018-06-10T17:00:50.077Z,23.20
2018-06-10T17:06:57.051Z,23.10
2018-06-10T17:10:00.767Z,23.10
2018-06-10T17:13:04.405Z,22.90
2018-06-10T17:16:08.035Z,22.80
2018-06-10T17:19:11.654Z,22.70
2018-06-10T17:22:15.290Z,22.60
2018-06-10T17:25:18.907Z,22.60
2018-06-10T17:28:22.689Z,22.50
2018-06-10T17:31:26.283Z,22.50
2018-06-10T17:34:30.012Z,22.50
2018-06-10T17:37:33.597Z,22.40
2018-06-10T17:40:37.230Z,22.30
2018-06-10T17:43:40.840Z,22.30
2018-06-10T17:46:44.601Z,22.20
2018-06-10T17:49:48.199Z,22.20
2018-06-10T17:55:55.162Z,22.40
2018-06-10T17:58:58.815Z,22.40
2018-06-10T18:02:02.605Z,22.60
2018-06-10T18:05:06.210Z,22.70
2018-06-10T18:11:13.259Z,22.90
2018-06-10T18:14:16.866Z,22.80
2018-06-10T18:17:20.498Z,22.80
2018-06-10T18:20:24.105Z,22.80
2018-06-10T18:26:31.246Z,22.70
2018-06-10T18:29:34.854Z,22.60
2018-06-10T18:32:38.453Z,22.50
2018-06-10T18:35:42.094Z,22.60
2018-06-10T18:38:45.701Z,22.70
2018-06-10T18:41:49.447Z,22.70
2018-06-10T18:44:53.058Z,22.70
2018-06-10T18:47:56.696Z,22.60
2018-06-10T18:51:00.442Z,22.60
2018-06-10T18:54:04.190Z,22.50
2018-06-10T18:57:07.806Z,22.50
2018-06-10T19:01:14.677Z,22.50
2018-06-10T19:04:18.290Z,22.40
2018-06-10T19:07:21.941Z,22.40
2018-06-10T19:10:25.589Z,22.40
2018-06-10T19:13:29.190Z,22.30
2018-06-10T19:16:32.810Z,22.20
2018-06-10T19:19:36.441Z,22.10
2018-06-10T19:22:40.085Z,22.00
2018-06-10T19:25:43.757Z,22.00
2018-06-10T19:28:47.398Z,21.80
2018-06-10T19:31:51.026Z,21.70
2018-06-10T19:34:54.640Z,21.80
2018-06-10T19:41:01.648Z,21.70
2018-06-10T19:47:08.751Z,21.50
2018-06-10T19:50:12.378Z,21.50
2018-06-10T19:53:16.019Z,21.50
2018-06-10T19:56:19.702Z,21.40
2018-06-10T19:59:23.901Z,21.40
2018-06-10T20:02:27.669Z,21.40
2018-06-10T20:08:34.638Z,21.30
2018-06-10T20:11:38.254Z,21.30
2018-06-10T20:14:41.889Z,21.20
2018-06-10T20:17:45.583Z,21.20
2018-06-10T20:20:49.239Z,21.20
2018-06-10T20:23:52.854Z,21.30
2018-06-10T20:26:56.487Z,21.20
2018-06-10T20:30:00.176Z,21.20
2018-06-10T20:33:03.750Z,21.20
2018-06-10T20:36:07.358Z,21.10
2018-06-10T20:39:11.000Z,21.00
2018-06-10T20:42:14.617Z,20.90
2018-06-10T20:45:18.246Z,20.80
2018-06-10T20:48:22.220Z,20.70
2018-06-10T20:51:25.932Z,20.70
2018-06-10T20:54:30.348Z,20.60
2018-06-10T20:57:34.049Z,20.60
2018-06-10T21:00:37.795Z,20.60
2018-06-10T21:03:41.517Z,20.60
2018-06-10T21:06:45.126Z,20.60
2018-06-10T21:09:48.821Z,20.50
2018-06-10T21:15:56.824Z,20.50
2018-06-10T21:19:00.534Z,20.50
2018-06-10T21:22:04.229Z,20.50
2018-06-10T21:25:07.850Z,20.50
2018-06-10T21:28:11.542Z,20.50
2018-06-10T21:31:15.153Z,20.40
2018-06-10T21:34:18.897Z,20.40
2018-06-10T21:37:22.483Z,20.30
2018-06-10T21:40:26.150Z,20.30
2018-06-10T21:43:29.762Z,20.20
2018-06-10T21:46:33.507Z,20.20
2018-06-10T21:49:37.103Z,20.20
2018-06-10T21:52:40.740Z,20.20
2018-06-10T21:55:44.365Z,20.10
2018-06-10T21:58:48.067Z,20.10
2018-06-10T22:01:52.610Z,20.10
2018-06-10T22:04:56.271Z,20.10
2018-06-10T22:07:59.926Z,20.10
2018-06-10T22:11:03.648Z,20.10
2018-06-10T22:14:07.235Z,20.10
2018-06-10T22:17:10.853Z,20.10
2018-06-10T22:23:18.078Z,20.00
2018-06-10T22:26:21.688Z,19.90
2018-06-10T22:29:25.360Z,20.00
2018-06-10T22:32:28.942Z,19.90
2018-06-10T22:35:32.562Z,19.80
2018-06-10T22:41:39.577Z,19.80
2018-06-10T22:44:43.202Z,19.80
2018-06-10T22:47:47.262Z,19.80
2018-06-10T22:50:50.925Z,19.70
2018-06-10T22:54:58.526Z,19.70
2018-06-10T22:58:02.339Z,19.70
2018-06-10T23:01:06.196Z,19.60
2018-06-10T23:04:09.763Z,19.50
2018-06-10T23:07:13.405Z,19.50
2018-06-10T23:13:20.470Z,19.40
2018-06-10T23:16:24.591Z,19.40
2018-06-10T23:19:28.718Z,19.40
2018-06-10T23:25:35.838Z,19.40
2018-06-10T23:28:39.454Z,19.40
2018-06-10T23:31:43.110Z,19.40
2018-06-10T23:34:46.741Z,19.40
2018-06-10T23:37:50.379Z,19.30
2018-06-10T23:40:54.089Z,19.30
2018-06-10T23:43:57.743Z,19.30
2018-06-10T23:50:04.812Z,19.20
2018-06-10T23:53:08.478Z,19.20
2018-06-10T23:56:12.118Z,19.10
2018-06-10T23:59:15.733Z,19.10
